sensor_id;sensor_type;location;lat;lon;timestamp;P1;durP1;ratioP1;P2;durP2;ratioP2
56860;SDS011;42744;51.094;3.490;2024-01-30T00:02:13;8.87;;;7.60;;
56860;SDS011;42744;51.094;3.490;2024-01-30T00:04:39;9.87;;;7.47;;
56860;SDS011;42744;51.094;3.490;2024-01-30T00:07:05;8.57;;;7.20;;
56860;SDS011;42744;51.094;3.490;2024-01-30T00:09:31;10.07;;;7.87;;
56860;SDS011;42744;51.094;3.490;2024-01-30T00:11:57;8.57;;;7.07;;
56860;SDS011;42744;51.094;3.490;2024-01-30T00:14:23;9.07;;;7.47;;
56860;SDS011;42744;51.094;3.490;2024-01-30T00:16:50;8.87;;;6.70;;
56860;SDS011;42744;51.094;3.490;2024-01-30T00:19:17;9.63;;;6.93;;
56860;SDS011;42744;51.094;3.490;2024-01-30T00:21:43;10.53;;;7.40;;
56860;SDS011;42744;51.094;3.490;2024-01-30T00:24:09;8.57;;;6.87;;
56860;SDS011;42744;51.094;3.490;2024-01-30T00:26:35;10.20;;;7.37;;
56860;SDS011;42744;51.094;3.490;2024-01-30T00:29:01;11.33;;;7.97;;
56860;SDS011;42744;51.094;3.490;2024-01-30T00:31:27;11.40;;;8.00;;
56860;SDS011;42744;51.094;3.490;2024-01-30T00:33:54;9.70;;;6.57;;
56860;SDS011;42744;51.094;3.490;2024-01-30T00:36:20;9.73;;;7.67;;
56860;SDS011;42744;51.094;3.490;2024-01-30T00:38:46;9.07;;;7.17;;
56860;SDS011;42744;51.094;3.490;2024-01-30T00:41:13;10.73;;;7.60;;
56860;SDS011;42744;51.094;3.490;2024-01-30T00:43:39;10.83;;;7.93;;
56860;SDS011;42744;51.094;3.490;2024-01-30T00:46:05;11.57;;;7.60;;
56860;SDS011;42744;51.094;3.490;2024-01-30T00:48:31;9.13;;;7.10;;
56860;SDS011;42744;51.094;3.490;2024-01-30T00:50:57;10.93;;;8.10;;
56860;SDS011;42744;51.094;3.490;2024-01-30T00:53:23;10.93;;;7.50;;
56860;SDS011;42744;51.094;3.490;2024-01-30T00:55:49;9.77;;;7.47;;
56860;SDS011;42744;51.094;3.490;2024-01-30T00:58:15;10.50;;;7.40;;
56860;SDS011;42744;51.094;3.490;2024-01-30T01:00:41;9.73;;;7.37;;
56860;SDS011;42744;51.094;3.490;2024-01-30T01:03:10;15.23;;;7.80;;
56860;SDS011;42744;51.094;3.490;2024-01-30T01:05:36;9.37;;;7.33;;
56860;SDS011;42744;51.094;3.490;2024-01-30T01:08:02;9.33;;;7.20;;
56860;SDS011;42744;51.094;3.490;2024-01-30T01:10:28;11.63;;;8.23;;
56860;SDS011;42744;51.094;3.490;2024-01-30T01:12:54;10.60;;;7.40;;
56860;SDS011;42744;51.094;3.490;2024-01-30T01:15:20;10.20;;;7.83;;
56860;SDS011;42744;51.094;3.490;2024-01-30T01:17:46;9.40;;;7.10;;
56860;SDS011;42744;51.094;3.490;2024-01-30T01:20:12;8.67;;;7.30;;
56860;SDS011;42744;51.094;3.490;2024-01-30T01:22:38;12.43;;;7.50;;
56860;SDS011;42744;51.094;3.490;2024-01-30T01:25:06;9.07;;;7.30;;
56860;SDS011;42744;51.094;3.490;2024-01-30T01:27:33;10.93;;;7.60;;
56860;SDS011;42744;51.094;3.490;2024-01-30T01:30:00;8.67;;;7.13;;
56860;SDS011;42744;51.094;3.490;2024-01-30T01:32:26;10.07;;;7.03;;
56860;SDS011;42744;51.094;3.490;2024-01-30T01:34:52;9.30;;;7.17;;
56860;SDS011;42744;51.094;3.490;2024-01-30T01:37:19;9.70;;;7.30;;
56860;SDS011;42744;51.094;3.490;2024-01-30T01:39:47;12.70;;;7.87;;
56860;SDS011;42744;51.094;3.490;2024-01-30T01:42:13;9.20;;;7.40;;
56860;SDS011;42744;51.094;3.490;2024-01-30T01:44:39;11.60;;;7.47;;
56860;SDS011;42744;51.094;3.490;2024-01-30T01:47:05;8.93;;;7.07;;
56860;SDS011;42744;51.094;3.490;2024-01-30T01:49:31;10.83;;;7.13;;
56860;SDS011;42744;51.094;3.490;2024-01-30T01:51:58;10.27;;;7.43;;
56860;SDS011;42744;51.094;3.490;2024-01-30T01:54:25;11.87;;;7.13;;
56860;SDS011;42744;51.094;3.490;2024-01-30T01:56:53;9.70;;;7.53;;
56860;SDS011;42744;51.094;3.490;2024-01-30T01:59:20;10.50;;;8.17;;
56860;SDS011;42744;51.094;3.490;2024-01-30T02:01:46;11.07;;;7.87;;
56860;SDS011;42744;51.094;3.490;2024-01-30T02:04:15;9.17;;;7.23;;
56860;SDS011;42744;51.094;3.490;2024-01-30T02:06:41;12.20;;;7.63;;
56860;SDS011;42744;51.094;3.490;2024-01-30T02:09:08;12.80;;;8.50;;
56860;SDS011;42744;51.094;3.490;2024-01-30T02:11:35;11.43;;;7.17;;
56860;SDS011;42744;51.094;3.490;2024-01-30T02:14:02;8.97;;;7.20;;
56860;SDS011;42744;51.094;3.490;2024-01-30T02:16:29;11.60;;;7.87;;
56860;SDS011;42744;51.094;3.490;2024-01-30T02:18:58;12.10;;;7.53;;
56860;SDS011;42744;51.094;3.490;2024-01-30T02:21:24;8.83;;;7.73;;
56860;SDS011;42744;51.094;3.490;2024-01-30T02:23:50;10.77;;;8.33;;
56860;SDS011;42744;51.094;3.490;2024-01-30T02:26:17;11.27;;;7.03;;
56860;SDS011;42744;51.094;3.490;2024-01-30T02:28:43;11.10;;;7.70;;
56860;SDS011;42744;51.094;3.490;2024-01-30T02:31:09;12.07;;;7.83;;
56860;SDS011;42744;51.094;3.490;2024-01-30T02:33:35;11.57;;;8.10;;
56860;SDS011;42744;51.094;3.490;2024-01-30T02:36:01;10.23;;;8.03;;
56860;SDS011;42744;51.094;3.490;2024-01-30T02:38:27;11.57;;;7.23;;
56860;SDS011;42744;51.094;3.490;2024-01-30T02:40:54;11.13;;;7.63;;
56860;SDS011;42744;51.094;3.490;2024-01-30T02:43:21;11.87;;;8.53;;
56860;SDS011;42744;51.094;3.490;2024-01-30T02:45:47;10.97;;;8.30;;
56860;SDS011;42744;51.094;3.490;2024-01-30T02:48:13;10.93;;;8.40;;
56860;SDS011;42744;51.094;3.490;2024-01-30T02:50:39;12.40;;;7.60;;
56860;SDS011;42744;51.094;3.490;2024-01-30T02:53:04;10.17;;;7.77;;
56860;SDS011;42744;51.094;3.490;2024-01-30T02:55:31;13.87;;;8.20;;
56860;SDS011;42744;51.094;3.490;2024-01-30T02:57:57;11.07;;;8.50;;
56860;SDS011;42744;51.094;3.490;2024-01-30T03:00:23;10.90;;;8.23;;
56860;SDS011;42744;51.094;3.490;2024-01-30T03:02:52;11.60;;;8.10;;
56860;SDS011;42744;51.094;3.490;2024-01-30T03:05:18;10.87;;;7.97;;
56860;SDS011;42744;51.094;3.490;2024-01-30T03:07:44;11.67;;;7.53;;
56860;SDS011;42744;51.094;3.490;2024-01-30T03:10:10;10.00;;;7.80;;
56860;SDS011;42744;51.094;3.490;2024-01-30T03:12:36;12.33;;;7.97;;
56860;SDS011;42744;51.094;3.490;2024-01-30T03:15:02;9.57;;;8.30;;
56860;SDS011;42744;51.094;3.490;2024-01-30T03:17:28;11.27;;;7.93;;
56860;SDS011;42744;51.094;3.490;2024-01-30T03:19:54;10.80;;;7.97;;
56860;SDS011;42744;51.094;3.490;2024-01-30T03:22:19;10.00;;;8.30;;
56860;SDS011;42744;51.094;3.490;2024-01-30T03:24:46;12.17;;;8.10;;
56860;SDS011;42744;51.094;3.490;2024-01-30T03:27:12;10.53;;;8.07;;
56860;SDS011;42744;51.094;3.490;2024-01-30T03:29:37;10.87;;;7.57;;
56860;SDS011;42744;51.094;3.490;2024-01-30T03:32:04;13.83;;;8.23;;
56860;SDS011;42744;51.094;3.490;2024-01-30T03:34:30;12.27;;;8.57;;
56860;SDS011;42744;51.094;3.490;2024-01-30T03:36:56;13.40;;;8.33;;
56860;SDS011;42744;51.094;3.490;2024-01-30T03:39:22;10.03;;;8.70;;
56860;SDS011;42744;51.094;3.490;2024-01-30T03:41:48;10.27;;;8.63;;
56860;SDS011;42744;51.094;3.490;2024-01-30T03:44:14;13.33;;;8.73;;
56860;SDS011;42744;51.094;3.490;2024-01-30T03:46:42;11.40;;;7.63;;
56860;SDS011;42744;51.094;3.490;2024-01-30T03:49:09;12.40;;;8.43;;
56860;SDS011;42744;51.094;3.490;2024-01-30T03:51:35;10.67;;;8.40;;
56860;SDS011;42744;51.094;3.490;2024-01-30T03:54:01;10.53;;;8.17;;
56860;SDS011;42744;51.094;3.490;2024-01-30T03:56:27;12.03;;;8.30;;
56860;SDS011;42744;51.094;3.490;2024-01-30T03:58:53;10.80;;;8.63;;
56860;SDS011;42744;51.094;3.490;2024-01-30T04:01:19;11.87;;;9.13;;
56860;SDS011;42744;51.094;3.490;2024-01-30T04:03:45;11.23;;;8.30;;
56860;SDS011;42744;51.094;3.490;2024-01-30T04:06:11;13.50;;;8.63;;
56860;SDS011;42744;51.094;3.490;2024-01-30T04:08:37;10.77;;;8.30;;
56860;SDS011;42744;51.094;3.490;2024-01-30T04:11:06;13.17;;;8.90;;
56860;SDS011;42744;51.094;3.490;2024-01-30T04:13:35;14.40;;;9.10;;
56860;SDS011;42744;51.094;3.490;2024-01-30T04:16:01;14.03;;;8.40;;
56860;SDS011;42744;51.094;3.490;2024-01-30T04:18:28;13.50;;;8.83;;
56860;SDS011;42744;51.094;3.490;2024-01-30T04:20:54;11.03;;;8.80;;
56860;SDS011;42744;51.094;3.490;2024-01-30T04:23:20;12.37;;;8.20;;
56860;SDS011;42744;51.094;3.490;2024-01-30T04:25:46;12.73;;;8.40;;
56860;SDS011;42744;51.094;3.490;2024-01-30T04:28:12;10.27;;;8.03;;
56860;SDS011;42744;51.094;3.490;2024-01-30T04:30:38;10.53;;;8.40;;
56860;SDS011;42744;51.094;3.490;2024-01-30T04:33:05;13.03;;;8.43;;
56860;SDS011;42744;51.094;3.490;2024-01-30T04:35:31;12.90;;;8.53;;
56860;SDS011;42744;51.094;3.490;2024-01-30T04:37:59;12.70;;;8.13;;
56860;SDS011;42744;51.094;3.490;2024-01-30T04:40:26;9.60;;;8.13;;
56860;SDS011;42744;51.094;3.490;2024-01-30T04:42:51;12.43;;;8.20;;
56860;SDS011;42744;51.094;3.490;2024-01-30T04:45:17;11.23;;;8.77;;
56860;SDS011;42744;51.094;3.490;2024-01-30T04:47:43;12.43;;;8.17;;
56860;SDS011;42744;51.094;3.490;2024-01-30T04:50:09;14.30;;;8.23;;
56860;SDS011;42744;51.094;3.490;2024-01-30T04:52:35;10.53;;;8.20;;
56860;SDS011;42744;51.094;3.490;2024-01-30T04:55:01;10.57;;;7.83;;
56860;SDS011;42744;51.094;3.490;2024-01-30T04:57:27;12.63;;;8.23;;
56860;SDS011;42744;51.094;3.490;2024-01-30T04:59:53;13.70;;;8.20;;
56860;SDS011;42744;51.094;3.490;2024-01-30T05:02:22;11.03;;;7.63;;
56860;SDS011;42744;51.094;3.490;2024-01-30T05:04:48;9.97;;;7.73;;
56860;SDS011;42744;51.094;3.490;2024-01-30T05:07:17;12.27;;;8.20;;
56860;SDS011;42744;51.094;3.490;2024-01-30T05:09:44;11.67;;;8.53;;
56860;SDS011;42744;51.094;3.490;2024-01-30T05:12:09;12.03;;;8.03;;
56860;SDS011;42744;51.094;3.490;2024-01-30T05:14:35;10.97;;;7.77;;
56860;SDS011;42744;51.094;3.490;2024-01-30T05:17:01;12.27;;;7.77;;
56860;SDS011;42744;51.094;3.490;2024-01-30T05:19:28;11.17;;;7.90;;
56860;SDS011;42744;51.094;3.490;2024-01-30T05:21:54;10.83;;;8.43;;
56860;SDS011;42744;51.094;3.490;2024-01-30T05:24:20;11.83;;;8.70;;
56860;SDS011;42744;51.094;3.490;2024-01-30T05:26:46;10.67;;;8.07;;
56860;SDS011;42744;51.094;3.490;2024-01-30T05:29:13;13.43;;;8.30;;
56860;SDS011;42744;51.094;3.490;2024-01-30T05:31:39;11.23;;;7.43;;
56860;SDS011;42744;51.094;3.490;2024-01-30T05:34:08;11.60;;;7.60;;
56860;SDS011;42744;51.094;3.490;2024-01-30T05:36:37;11.50;;;7.53;;
56860;SDS011;42744;51.094;3.490;2024-01-30T05:39:03;10.47;;;8.30;;
56860;SDS011;42744;51.094;3.490;2024-01-30T05:41:30;11.37;;;7.90;;
56860;SDS011;42744;51.094;3.490;2024-01-30T05:43:56;14.03;;;8.40;;
56860;SDS011;42744;51.094;3.490;2024-01-30T05:46:22;13.23;;;8.33;;
56860;SDS011;42744;51.094;3.490;2024-01-30T05:48:48;10.17;;;8.10;;
56860;SDS011;42744;51.094;3.490;2024-01-30T05:51:13;10.40;;;7.83;;
56860;SDS011;42744;51.094;3.490;2024-01-30T05:53:43;16.03;;;8.07;;
56860;SDS011;42744;51.094;3.490;2024-01-30T05:56:09;14.37;;;8.07;;
56860;SDS011;42744;51.094;3.490;2024-01-30T05:58:38;12.77;;;8.00;;
56860;SDS011;42744;51.094;3.490;2024-01-30T06:01:07;10.97;;;7.93;;
56860;SDS011;42744;51.094;3.490;2024-01-30T06:03:34;10.43;;;7.90;;
56860;SDS011;42744;51.094;3.490;2024-01-30T06:06:00;11.07;;;8.03;;
56860;SDS011;42744;51.094;3.490;2024-01-30T06:08:26;12.07;;;8.00;;
56860;SDS011;42744;51.094;3.490;2024-01-30T06:10:52;11.90;;;7.87;;
56860;SDS011;42744;51.094;3.490;2024-01-30T06:13:21;12.80;;;8.67;;
56860;SDS011;42744;51.094;3.490;2024-01-30T06:15:47;10.60;;;7.40;;
56860;SDS011;42744;51.094;3.490;2024-01-30T06:18:13;11.53;;;7.70;;
56860;SDS011;42744;51.094;3.490;2024-01-30T06:20:39;11.07;;;7.43;;
56860;SDS011;42744;51.094;3.490;2024-01-30T06:23:05;10.10;;;7.57;;
56860;SDS011;42744;51.094;3.490;2024-01-30T06:25:31;14.27;;;8.60;;
56860;SDS011;42744;51.094;3.490;2024-01-30T06:27:57;11.93;;;7.63;;
56860;SDS011;42744;51.094;3.490;2024-01-30T06:30:23;10.23;;;7.27;;
56860;SDS011;42744;51.094;3.490;2024-01-30T06:32:51;9.53;;;7.50;;
56860;SDS011;42744;51.094;3.490;2024-01-30T06:35:16;10.83;;;7.20;;
56860;SDS011;42744;51.094;3.490;2024-01-30T06:37:43;12.27;;;8.53;;
56860;SDS011;42744;51.094;3.490;2024-01-30T06:40:09;11.17;;;7.40;;
56860;SDS011;42744;51.094;3.490;2024-01-30T06:42:35;11.33;;;7.77;;
56860;SDS011;42744;51.094;3.490;2024-01-30T06:45:01;11.30;;;7.97;;
56860;SDS011;42744;51.094;3.490;2024-01-30T06:47:27;10.70;;;7.40;;
56860;SDS011;42744;51.094;3.490;2024-01-30T06:49:54;10.17;;;7.20;;
56860;SDS011;42744;51.094;3.490;2024-01-30T06:52:20;9.80;;;7.43;;
56860;SDS011;42744;51.094;3.490;2024-01-30T06:54:46;13.10;;;8.00;;
56860;SDS011;42744;51.094;3.490;2024-01-30T06:57:12;11.13;;;7.23;;
56860;SDS011;42744;51.094;3.490;2024-01-30T06:59:39;11.17;;;7.40;;
56860;SDS011;42744;51.094;3.490;2024-01-30T07:02:09;11.40;;;7.40;;
56860;SDS011;42744;51.094;3.490;2024-01-30T07:04:35;12.67;;;8.10;;
56860;SDS011;42744;51.094;3.490;2024-01-30T07:07:03;11.53;;;7.57;;
56860;SDS011;42744;51.094;3.490;2024-01-30T07:09:30;13.03;;;8.07;;
56860;SDS011;42744;51.094;3.490;2024-01-30T07:11:56;11.67;;;7.87;;
56860;SDS011;42744;51.094;3.490;2024-01-30T07:14:23;14.53;;;8.57;;
56860;SDS011;42744;51.094;3.490;2024-01-30T07:16:50;12.23;;;8.10;;
56860;SDS011;42744;51.094;3.490;2024-01-30T07:19:16;13.53;;;8.10;;
56860;SDS011;42744;51.094;3.490;2024-01-30T07:21:42;10.23;;;7.63;;
56860;SDS011;42744;51.094;3.490;2024-01-30T07:24:08;12.23;;;7.97;;
56860;SDS011;42744;51.094;3.490;2024-01-30T07:26:34;15.23;;;8.70;;
56860;SDS011;42744;51.094;3.490;2024-01-30T07:29:00;11.13;;;8.23;;
56860;SDS011;42744;51.094;3.490;2024-01-30T07:31:27;11.67;;;7.67;;
56860;SDS011;42744;51.094;3.490;2024-01-30T07:33:54;15.43;;;9.50;;
56860;SDS011;42744;51.094;3.490;2024-01-30T07:36:20;14.13;;;9.07;;
56860;SDS011;42744;51.094;3.490;2024-01-30T07:38:46;15.67;;;9.37;;
56860;SDS011;42744;51.094;3.490;2024-01-30T07:41:12;12.27;;;8.40;;
56860;SDS011;42744;51.094;3.490;2024-01-30T07:43:38;13.60;;;8.67;;
56860;SDS011;42744;51.094;3.490;2024-01-30T07:46:04;13.13;;;8.73;;
56860;SDS011;42744;51.094;3.490;2024-01-30T07:48:32;11.70;;;8.30;;
56860;SDS011;42744;51.094;3.490;2024-01-30T07:50:59;14.63;;;9.10;;
56860;SDS011;42744;51.094;3.490;2024-01-30T07:53:25;17.90;;;8.67;;
56860;SDS011;42744;51.094;3.490;2024-01-30T07:55:52;12.33;;;8.17;;
56860;SDS011;42744;51.094;3.490;2024-01-30T07:58:18;15.57;;;8.70;;
56860;SDS011;42744;51.094;3.490;2024-01-30T08:00:44;13.73;;;8.97;;
56860;SDS011;42744;51.094;3.490;2024-01-30T08:03:11;12.00;;;8.63;;
56860;SDS011;42744;51.094;3.490;2024-01-30T08:05:37;13.33;;;8.73;;
56860;SDS011;42744;51.094;3.490;2024-01-30T08:08:04;14.67;;;9.27;;
56860;SDS011;42744;51.094;3.490;2024-01-30T08:10:30;27.93;;;9.47;;
56860;SDS011;42744;51.094;3.490;2024-01-30T08:12:56;15.97;;;9.27;;
56860;SDS011;42744;51.094;3.490;2024-01-30T08:15:25;14.63;;;9.93;;
56860;SDS011;42744;51.094;3.490;2024-01-30T08:17:51;15.33;;;10.23;;
56860;SDS011;42744;51.094;3.490;2024-01-30T08:20:25;17.53;;;8.57;;
56860;SDS011;42744;51.094;3.490;2024-01-30T08:22:53;16.27;;;9.07;;
56860;SDS011;42744;51.094;3.490;2024-01-30T08:25:19;14.67;;;8.40;;
56860;SDS011;42744;51.094;3.490;2024-01-30T08:27:45;14.70;;;8.07;;
56860;SDS011;42744;51.094;3.490;2024-01-30T08:30:11;11.60;;;8.50;;
56860;SDS011;42744;51.094;3.490;2024-01-30T08:32:37;14.50;;;8.70;;
56860;SDS011;42744;51.094;3.490;2024-01-30T08:35:03;13.40;;;7.23;;
56860;SDS011;42744;51.094;3.490;2024-01-30T08:37:30;17.30;;;8.37;;
56860;SDS011;42744;51.094;3.490;2024-01-30T08:39:56;15.77;;;7.47;;
56860;SDS011;42744;51.094;3.490;2024-01-30T08:42:22;12.47;;;7.50;;
56860;SDS011;42744;51.094;3.490;2024-01-30T08:44:48;16.63;;;6.77;;
56860;SDS011;42744;51.094;3.490;2024-01-30T08:47:16;14.07;;;6.60;;
56860;SDS011;42744;51.094;3.490;2024-01-30T08:49:43;10.90;;;5.27;;
56860;SDS011;42744;51.094;3.490;2024-01-30T08:52:10;13.03;;;4.40;;
56860;SDS011;42744;51.094;3.490;2024-01-30T08:54:36;8.17;;;4.10;;
56860;SDS011;42744;51.094;3.490;2024-01-30T08:57:02;10.73;;;3.13;;
56860;SDS011;42744;51.094;3.490;2024-01-30T08:59:29;10.53;;;2.90;;
56860;SDS011;42744;51.094;3.490;2024-01-30T09:01:55;5.60;;;2.83;;
56860;SDS011;42744;51.094;3.490;2024-01-30T09:04:23;7.60;;;2.57;;
56860;SDS011;42744;51.094;3.490;2024-01-30T09:06:49;4.63;;;2.13;;
56860;SDS011;42744;51.094;3.490;2024-01-30T09:09:15;6.57;;;3.13;;
56860;SDS011;42744;51.094;3.490;2024-01-30T09:11:41;3.80;;;1.93;;
56860;SDS011;42744;51.094;3.490;2024-01-30T09:14:07;3.77;;;1.80;;
56860;SDS011;42744;51.094;3.490;2024-01-30T09:16:34;4.53;;;1.67;;
56860;SDS011;42744;51.094;3.490;2024-01-30T09:19:00;7.37;;;1.37;;
56860;SDS011;42744;51.094;3.490;2024-01-30T09:21:26;7.33;;;1.67;;
56860;SDS011;42744;51.094;3.490;2024-01-30T09:23:54;8.20;;;1.57;;
56860;SDS011;42744;51.094;3.490;2024-01-30T09:26:20;3.13;;;1.10;;
56860;SDS011;42744;51.094;3.490;2024-01-30T09:28:46;4.17;;;1.10;;
56860;SDS011;42744;51.094;3.490;2024-01-30T09:31:12;4.10;;;1.23;;
56860;SDS011;42744;51.094;3.490;2024-01-30T09:33:38;3.17;;;0.90;;
56860;SDS011;42744;51.094;3.490;2024-01-30T09:36:07;4.73;;;0.80;;
56860;SDS011;42744;51.094;3.490;2024-01-30T09:38:33;2.43;;;0.60;;
56860;SDS011;42744;51.094;3.490;2024-01-30T09:41:00;2.20;;;0.60;;
56860;SDS011;42744;51.094;3.490;2024-01-30T09:43:32;2.47;;;0.40;;
56860;SDS011;42744;51.094;3.490;2024-01-30T09:46:00;1.83;;;0.40;;
56860;SDS011;42744;51.094;3.490;2024-01-30T09:48:29;1.63;;;0.53;;
56860;SDS011;42744;51.094;3.490;2024-01-30T09:50:56;5.67;;;0.67;;
56860;SDS011;42744;51.094;3.490;2024-01-30T09:53:23;2.63;;;0.60;;
56860;SDS011;42744;51.094;3.490;2024-01-30T09:55:49;2.37;;;0.67;;
56860;SDS011;42744;51.094;3.490;2024-01-30T09:58:16;3.40;;;0.80;;
56860;SDS011;42744;51.094;3.490;2024-01-30T10:00:42;7.73;;;0.50;;
56860;SDS011;42744;51.094;3.490;2024-01-30T10:03:12;3.77;;;0.97;;
56860;SDS011;42744;51.094;3.490;2024-01-30T10:05:40;3.60;;;0.50;;
56860;SDS011;42744;51.094;3.490;2024-01-30T10:08:09;3.10;;;0.60;;
56860;SDS011;42744;51.094;3.490;2024-01-30T10:10:35;3.27;;;0.40;;
56860;SDS011;42744;51.094;3.490;2024-01-30T10:13:01;2.50;;;0.60;;
56860;SDS011;42744;51.094;3.490;2024-01-30T10:15:28;5.57;;;0.77;;
56860;SDS011;42744;51.094;3.490;2024-01-30T10:17:54;3.80;;;0.60;;
56860;SDS011;42744;51.094;3.490;2024-01-30T10:20:20;2.83;;;0.90;;
56860;SDS011;42744;51.094;3.490;2024-01-30T10:22:47;3.97;;;0.77;;
56860;SDS011;42744;51.094;3.490;2024-01-30T10:25:14;2.63;;;0.50;;
56860;SDS011;42744;51.094;3.490;2024-01-30T10:27:41;2.83;;;0.70;;
56860;SDS011;42744;51.094;3.490;2024-01-30T10:30:07;4.77;;;0.80;;
56860;SDS011;42744;51.094;3.490;2024-01-30T10:32:33;4.93;;;0.80;;
56860;SDS011;42744;51.094;3.490;2024-01-30T10:34:59;3.17;;;1.20;;
56860;SDS011;42744;51.094;3.490;2024-01-30T10:37:25;2.13;;;0.73;;
56860;SDS011;42744;51.094;3.490;2024-01-30T10:39:53;4.53;;;1.30;;
56860;SDS011;42744;51.094;3.490;2024-01-30T10:42:23;3.60;;;0.97;;
56860;SDS011;42744;51.094;3.490;2024-01-30T10:47:29;3.57;;;1.00;;
56860;SDS011;42744;51.094;3.490;2024-01-30T10:49:55;3.53;;;0.97;;
56860;SDS011;42744;51.094;3.490;2024-01-30T10:52:25;5.87;;;1.10;;
56860;SDS011;42744;51.094;3.490;2024-01-30T10:54:51;3.73;;;1.10;;
56860;SDS011;42744;51.094;3.490;2024-01-30T10:57:19;8.50;;;1.17;;
56860;SDS011;42744;51.094;3.490;2024-01-30T10:59:51;2.07;;;0.90;;
56860;SDS011;42744;51.094;3.490;2024-01-30T11:02:20;4.77;;;0.93;;
56860;SDS011;42744;51.094;3.490;2024-01-30T11:04:49;4.07;;;1.33;;
56860;SDS011;42744;51.094;3.490;2024-01-30T11:07:15;4.40;;;0.90;;
56860;SDS011;42744;51.094;3.490;2024-01-30T11:09:48;3.37;;;0.77;;
56860;SDS011;42744;51.094;3.490;2024-01-30T11:12:16;8.10;;;1.73;;
56860;SDS011;42744;51.094;3.490;2024-01-30T11:14:46;6.23;;;1.53;;
56860;SDS011;42744;51.094;3.490;2024-01-30T11:17:12;3.10;;;1.20;;
56860;SDS011;42744;51.094;3.490;2024-01-30T11:19:41;4.20;;;1.23;;
56860;SDS011;42744;51.094;3.490;2024-01-30T11:22:07;5.80;;;1.10;;
56860;SDS011;42744;51.094;3.490;2024-01-30T11:24:40;4.47;;;1.30;;
56860;SDS011;42744;51.094;3.490;2024-01-30T11:27:09;7.93;;;1.40;;
56860;SDS011;42744;51.094;3.490;2024-01-30T11:29:35;4.43;;;0.80;;
56860;SDS011;42744;51.094;3.490;2024-01-30T11:32:02;2.60;;;0.93;;
56860;SDS011;42744;51.094;3.490;2024-01-30T11:34:28;4.20;;;1.17;;
56860;SDS011;42744;51.094;3.490;2024-01-30T11:37:03;4.30;;;1.10;;
56860;SDS011;42744;51.094;3.490;2024-01-30T11:39:34;4.37;;;0.87;;
56860;SDS011;42744;51.094;3.490;2024-01-30T11:42:01;6.13;;;0.70;;
56860;SDS011;42744;51.094;3.490;2024-01-30T11:44:30;5.50;;;0.73;;
56860;SDS011;42744;51.094;3.490;2024-01-30T11:46:56;3.53;;;0.57;;
56860;SDS011;42744;51.094;3.490;2024-01-30T11:49:23;2.53;;;0.50;;
56860;SDS011;42744;51.094;3.490;2024-01-30T11:51:48;8.83;;;1.23;;
56860;SDS011;42744;51.094;3.490;2024-01-30T11:54:15;3.37;;;0.87;;
56860;SDS011;42744;51.094;3.490;2024-01-30T11:56:41;3.70;;;0.93;;
56860;SDS011;42744;51.094;3.490;2024-01-30T11:59:08;7.03;;;0.90;;
56860;SDS011;42744;51.094;3.490;2024-01-30T12:01:35;4.97;;;1.40;;
56860;SDS011;42744;51.094;3.490;2024-01-30T12:04:01;2.63;;;0.50;;
56860;SDS011;42744;51.094;3.490;2024-01-30T12:06:28;3.27;;;0.60;;
56860;SDS011;42744;51.094;3.490;2024-01-30T12:08:58;3.70;;;0.80;;
56860;SDS011;42744;51.094;3.490;2024-01-30T12:11:25;3.37;;;0.70;;
56860;SDS011;42744;51.094;3.490;2024-01-30T12:13:52;4.67;;;0.60;;
56860;SDS011;42744;51.094;3.490;2024-01-30T12:16:19;9.10;;;1.73;;
56860;SDS011;42744;51.094;3.490;2024-01-30T12:18:46;4.67;;;1.00;;
56860;SDS011;42744;51.094;3.490;2024-01-30T12:21:17;4.33;;;0.83;;
56860;SDS011;42744;51.094;3.490;2024-01-30T12:23:44;5.13;;;1.00;;
56860;SDS011;42744;51.094;3.490;2024-01-30T12:26:10;7.37;;;1.20;;
56860;SDS011;42744;51.094;3.490;2024-01-30T12:28:46;3.47;;;1.17;;
56860;SDS011;42744;51.094;3.490;2024-01-30T12:31:16;1.37;;;0.50;;
56860;SDS011;42744;51.094;3.490;2024-01-30T12:33:42;2.43;;;0.77;;
56860;SDS011;42744;51.094;3.490;2024-01-30T12:36:08;4.17;;;0.83;;
56860;SDS011;42744;51.094;3.490;2024-01-30T12:38:34;5.80;;;1.00;;
56860;SDS011;42744;51.094;3.490;2024-01-30T12:41:00;6.03;;;0.83;;
56860;SDS011;42744;51.094;3.490;2024-01-30T12:43:26;4.40;;;0.77;;
56860;SDS011;42744;51.094;3.490;2024-01-30T12:45:52;5.93;;;1.00;;
56860;SDS011;42744;51.094;3.490;2024-01-30T12:48:18;4.37;;;0.90;;
56860;SDS011;42744;51.094;3.490;2024-01-30T12:50:44;5.60;;;1.03;;
56860;SDS011;42744;51.094;3.490;2024-01-30T12:53:10;8.23;;;1.60;;
56860;SDS011;42744;51.094;3.490;2024-01-30T12:55:37;6.17;;;1.07;;
56860;SDS011;42744;51.094;3.490;2024-01-30T12:58:03;4.20;;;1.07;;
56860;SDS011;42744;51.094;3.490;2024-01-30T13:00:30;5.77;;;1.27;;
56860;SDS011;42744;51.094;3.490;2024-01-30T13:02:55;2.43;;;0.80;;
56860;SDS011;42744;51.094;3.490;2024-01-30T13:05:21;1.53;;;0.93;;
56860;SDS011;42744;51.094;3.490;2024-01-30T13:07:48;5.00;;;1.50;;
56860;SDS011;42744;51.094;3.490;2024-01-30T13:10:13;4.57;;;1.07;;
56860;SDS011;42744;51.094;3.490;2024-01-30T13:12:39;5.53;;;1.87;;
56860;SDS011;42744;51.094;3.490;2024-01-30T13:15:05;5.40;;;1.60;;
56860;SDS011;42744;51.094;3.490;2024-01-30T13:17:31;4.07;;;1.53;;
56860;SDS011;42744;51.094;3.490;2024-01-30T13:19:58;4.73;;;1.20;;
56860;SDS011;42744;51.094;3.490;2024-01-30T13:22:24;2.23;;;1.03;;
56860;SDS011;42744;51.094;3.490;2024-01-30T13:24:50;6.33;;;1.37;;
56860;SDS011;42744;51.094;3.490;2024-01-30T13:27:16;4.43;;;1.43;;
56860;SDS011;42744;51.094;3.490;2024-01-30T13:29:43;4.53;;;1.13;;
56860;SDS011;42744;51.094;3.490;2024-01-30T13:32:09;5.50;;;1.37;;
56860;SDS011;42744;51.094;3.490;2024-01-30T13:34:35;4.17;;;1.40;;
56860;SDS011;42744;51.094;3.490;2024-01-30T13:37:01;4.60;;;1.27;;
56860;SDS011;42744;51.094;3.490;2024-01-30T13:39:27;5.67;;;1.90;;
56860;SDS011;42744;51.094;3.490;2024-01-30T13:41:54;4.87;;;1.70;;
56860;SDS011;42744;51.094;3.490;2024-01-30T13:44:20;6.83;;;1.63;;
56860;SDS011;42744;51.094;3.490;2024-01-30T13:46:46;3.57;;;1.80;;
56860;SDS011;42744;51.094;3.490;2024-01-30T13:49:12;3.13;;;1.90;;
56860;SDS011;42744;51.094;3.490;2024-01-30T13:51:38;5.40;;;1.93;;
56860;SDS011;42744;51.094;3.490;2024-01-30T13:54:04;4.30;;;1.63;;
56860;SDS011;42744;51.094;3.490;2024-01-30T13:56:30;5.40;;;1.90;;
56860;SDS011;42744;51.094;3.490;2024-01-30T13:58:56;5.00;;;1.70;;
56860;SDS011;42744;51.094;3.490;2024-01-30T14:01:22;5.87;;;2.20;;
56860;SDS011;42744;51.094;3.490;2024-01-30T14:03:49;5.50;;;2.10;;
56860;SDS011;42744;51.094;3.490;2024-01-30T14:06:15;4.57;;;1.70;;
56860;SDS011;42744;51.094;3.490;2024-01-30T14:08:41;4.67;;;2.20;;
56860;SDS011;42744;51.094;3.490;2024-01-30T14:11:07;6.10;;;2.07;;
56860;SDS011;42744;51.094;3.490;2024-01-30T14:13:36;7.97;;;2.40;;
56860;SDS011;42744;51.094;3.490;2024-01-30T14:16:02;6.90;;;2.27;;
56860;SDS011;42744;51.094;3.490;2024-01-30T14:18:28;8.13;;;2.30;;
56860;SDS011;42744;51.094;3.490;2024-01-30T14:20:54;6.00;;;2.47;;
56860;SDS011;42744;51.094;3.490;2024-01-30T14:23:20;7.73;;;2.77;;
56860;SDS011;42744;51.094;3.490;2024-01-30T14:25:47;6.07;;;2.00;;
56860;SDS011;42744;51.094;3.490;2024-01-30T14:28:12;5.83;;;2.47;;
56860;SDS011;42744;51.094;3.490;2024-01-30T14:30:38;5.97;;;2.47;;
56860;SDS011;42744;51.094;3.490;2024-01-30T14:33:04;4.03;;;2.30;;
56860;SDS011;42744;51.094;3.490;2024-01-30T14:35:32;11.07;;;2.53;;
56860;SDS011;42744;51.094;3.490;2024-01-30T14:37:59;4.07;;;2.10;;
56860;SDS011;42744;51.094;3.490;2024-01-30T14:40:25;5.13;;;2.63;;